sensor_id;sensor_type;location;lat;lon;timestamp;temperature;humidity
29803;DHT22;16702;50.898;4.662;2023-02-24T00:02:16;8.50;99.90
29803;DHT22;16702;50.898;4.662;2023-02-24T00:04:46;8.40;99.90
29803;DHT22;16702;50.898;4.662;2023-02-24T00:07:21;8.40;99.90
29803;DHT22;16702;50.898;4.662;2023-02-24T00:09:56;8.30;99.90
29803;DHT22;16702;50.898;4.662;2023-02-24T00:12:27;8.40;99.90
29803;DHT22;16702;50.898;4.662;2023-02-24T00:14:58;8.30;99.90
29803;DHT22;16702;50.898;4.662;2023-02-24T00:17:30;8.40;99.90
29803;DHT22;16702;50.898;4.662;2023-02-24T00:20:06;8.50;99.90
29803;DHT22;16702;50.898;4.662;2023-02-24T00:22:41;8.40;99.90
29803;DHT22;16702;50.898;4.662;2023-02-24T00:25:12;8.40;99.90
29803;DHT22;16702;50.898;4.662;2023-02-24T00:27:43;8.30;99.90
29803;DHT22;16702;50.898;4.662;2023-02-24T00:30:15;8.30;99.90
29803;DHT22;16702;50.898;4.662;2023-02-24T00:32:48;8.30;99.90
29803;DHT22;16702;50.898;4.662;2023-02-24T00:35:19;8.30;99.90
29803;DHT22;16702;50.898;4.662;2023-02-24T00:37:53;8.30;99.90
29803;DHT22;16702;50.898;4.662;2023-02-24T00:40:24;8.30;99.90
29803;DHT22;16702;50.898;4.662;2023-02-24T00:42:59;8.20;99.90
29803;DHT22;16702;50.898;4.662;2023-02-24T00:45:30;8.30;99.90
29803;DHT22;16702;50.898;4.662;2023-02-24T00:48:03;8.30;99.90
29803;DHT22;16702;50.898;4.662;2023-02-24T00:50:37;8.40;99.90
29803;DHT22;16702;50.898;4.662;2023-02-24T00:53:11;8.40;99.90
29803;DHT22;16702;50.898;4.662;2023-02-24T00:55:44;8.40;99.90
29803;DHT22;16702;50.898;4.662;2023-02-24T00:58:15;8.30;99.90
29803;DHT22;16702;50.898;4.662;2023-02-24T01:00:45;8.30;99.90
29803;DHT22;16702;50.898;4.662;2023-02-24T01:03:16;8.30;99.90
29803;DHT22;16702;50.898;4.662;2023-02-24T01:05:47;8.40;99.90
29803;DHT22;16702;50.898;4.662;2023-02-24T01:08:24;8.30;99.90
29803;DHT22;16702;50.898;4.662;2023-02-24T01:10:56;8.30;99.90
29803;DHT22;16702;50.898;4.662;2023-02-24T01:13:39;8.20;99.90
29803;DHT22;16702;50.898;4.662;2023-02-24T01:16:09;8.30;99.90
29803;DHT22;16702;50.898;4.662;2023-02-24T01:18:46;8.30;99.90
29803;DHT22;16702;50.898;4.662;2023-02-24T01:21:19;8.30;99.90
29803;DHT22;16702;50.898;4.662;2023-02-24T01:23:53;8.30;99.90
29803;DHT22;16702;50.898;4.662;2023-02-24T01:26:24;8.30;99.90
29803;DHT22;16702;50.898;4.662;2023-02-24T01:28:55;8.20;99.90
29803;DHT22;16702;50.898;4.662;2023-02-24T01:31:26;8.20;99.90
29803;DHT22;16702;50.898;4.662;2023-02-24T01:33:57;8.20;99.90
29803;DHT22;16702;50.898;4.662;2023-02-24T01:36:33;8.10;99.90
29803;DHT22;16702;50.898;4.662;2023-02-24T01:39:06;8.10;99.90
29803;DHT22;16702;50.898;4.662;2023-02-24T01:41:39;8.10;99.90
29803;DHT22;16702;50.898;4.662;2023-02-24T01:47:18;8.00;99.90
29803;DHT22;16702;50.898;4.662;2023-02-24T01:49:51;8.00;99.90
29803;DHT22;16702;50.898;4.662;2023-02-24T01:52:26;8.10;99.90
29803;DHT22;16702;50.898;4.662;2023-02-24T01:55:08;8.10;99.90
29803;DHT22;16702;50.898;4.662;2023-02-24T01:57:41;7.90;99.90
29803;DHT22;16702;50.898;4.662;2023-02-24T02:00:16;8.00;99.90
29803;DHT22;16702;50.898;4.662;2023-02-24T02:03:03;8.00;99.90
29803;DHT22;16702;50.898;4.662;2023-02-24T02:05:37;8.00;99.90
29803;DHT22;16702;50.898;4.662;2023-02-24T02:08:09;7.90;99.90
29803;DHT22;16702;50.898;4.662;2023-02-24T02:10:43;8.00;99.90
29803;DHT22;16702;50.898;4.662;2023-02-24T02:13:15;8.00;99.90
29803;DHT22;16702;50.898;4.662;2023-02-24T02:15:59;7.90;99.90
29803;DHT22;16702;50.898;4.662;2023-02-24T02:18:41;7.90;99.90
29803;DHT22;16702;50.898;4.662;2023-02-24T02:24:34;8.00;99.90
29803;DHT22;16702;50.898;4.662;2023-02-24T02:33:24;7.90;99.90
29803;DHT22;16702;50.898;4.662;2023-02-24T02:36:12;7.90;99.90
29803;DHT22;16702;50.898;4.662;2023-02-24T02:38:51;7.90;99.90
29803;DHT22;16702;50.898;4.662;2023-02-24T02:41:24;7.90;99.90
29803;DHT22;16702;50.898;4.662;2023-02-24T02:44:03;7.90;99.90
29803;DHT22;16702;50.898;4.662;2023-02-24T02:46:43;7.90;99.90
29803;DHT22;16702;50.898;4.662;2023-02-24T02:49:18;7.90;99.90
29803;DHT22;16702;50.898;4.662;2023-02-24T02:51:57;8.00;99.90
29803;DHT22;16702;50.898;4.662;2023-02-24T02:54:38;8.00;99.90
29803;DHT22;16702;50.898;4.662;2023-02-24T02:57:20;8.00;99.90
29803;DHT22;16702;50.898;4.662;2023-02-24T02:59:56;8.00;99.90
29803;DHT22;16702;50.898;4.662;2023-02-24T03:02:31;8.00;99.90
29803;DHT22;16702;50.898;4.662;2023-02-24T03:05:08;7.90;99.90
29803;DHT22;16702;50.898;4.662;2023-02-24T03:07:50;7.90;99.90
29803;DHT22;16702;50.898;4.662;2023-02-24T03:10:26;7.90;99.90
29803;DHT22;16702;50.898;4.662;2023-02-24T03:13:02;7.90;99.90
29803;DHT22;16702;50.898;4.662;2023-02-24T03:15:36;8.00;99.90
29803;DHT22;16702;50.898;4.662;2023-02-24T03:18:13;8.00;99.90
29803;DHT22;16702;50.898;4.662;2023-02-24T03:20:50;7.90;99.90
29803;DHT22;16702;50.898;4.662;2023-02-24T03:23:28;7.90;99.90
29803;DHT22;16702;50.898;4.662;2023-02-24T03:26:08;7.90;99.90
29803;DHT22;16702;50.898;4.662;2023-02-24T03:28:52;7.90;99.90
29803;DHT22;16702;50.898;4.662;2023-02-24T03:31:34;7.90;99.90
29803;DHT22;16702;50.898;4.662;2023-02-24T03:34:12;8.00;99.90
29803;DHT22;16702;50.898;4.662;2023-02-24T03:36:45;8.00;99.90
29803;DHT22;16702;50.898;4.662;2023-02-24T03:39:19;7.90;99.90
29803;DHT22;16702;50.898;4.662;2023-02-24T03:42:04;7.90;99.90
29803;DHT22;16702;50.898;4.662;2023-02-24T03:44:38;7.90;99.90
29803;DHT22;16702;50.898;4.662;2023-02-24T03:47:12;8.00;99.90
29803;DHT22;16702;50.898;4.662;2023-02-24T03:49:44;7.90;99.90
29803;DHT22;16702;50.898;4.662;2023-02-24T03:52:23;7.90;99.90
29803;DHT22;16702;50.898;4.662;2023-02-24T03:55:20;7.90;99.90
29803;DHT22;16702;50.898;4.662;2023-02-24T03:58:03;7.90;99.90
29803;DHT22;16702;50.898;4.662;2023-02-24T04:00:46;7.90;99.90
29803;DHT22;16702;50.898;4.662;2023-02-24T04:03:23;7.80;99.90
29803;DHT22;16702;50.898;4.662;2023-02-24T04:06:10;7.90;99.90
29803;DHT22;16702;50.898;4.662;2023-02-24T04:08:47;7.90;99.90
29803;DHT22;16702;50.898;4.662;2023-02-24T04:11:25;7.90;99.90
29803;DHT22;16702;50.898;4.662;2023-02-24T04:14:02;7.90;99.90
29803;DHT22;16702;50.898;4.662;2023-02-24T04:16:37;7.90;99.90
29803;DHT22;16702;50.898;4.662;2023-02-24T04:19:14;7.90;99.90
29803;DHT22;16702;50.898;4.662;2023-02-24T04:21:49;7.90;99.90
29803;DHT22;16702;50.898;4.662;2023-02-24T04:24:27;7.90;99.90
29803;DHT22;16702;50.898;4.662;2023-02-24T04:27:03;7.80;99.90
29803;DHT22;16702;50.898;4.662;2023-02-24T04:29:41;7.80;99.90
29803;DHT22;16702;50.898;4.662;2023-02-24T04:32:20;7.80;99.90
29803;DHT22;16702;50.898;4.662;2023-02-24T04:34:51;7.80;99.90
29803;DHT22;16702;50.898;4.662;2023-02-24T04:37:24;7.80;99.90
29803;DHT22;16702;50.898;4.662;2023-02-24T04:40:04;7.80;99.90
29803;DHT22;16702;50.898;4.662;2023-02-24T04:42:42;7.80;99.90
29803;DHT22;16702;50.898;4.662;2023-02-24T04:45:17;7.80;99.90
29803;DHT22;16702;50.898;4.662;2023-02-24T04:47:49;7.70;99.90
29803;DHT22;16702;50.898;4.662;2023-02-24T04:50:23;7.70;99.90
29803;DHT22;16702;50.898;4.662;2023-02-24T04:52:56;7.70;99.90
29803;DHT22;16702;50.898;4.662;2023-02-24T04:55:29;7.70;99.90
29803;DHT22;16702;50.898;4.662;2023-02-24T04:58:06;7.60;99.90
29803;DHT22;16702;50.898;4.662;2023-02-24T05:00:37;7.60;99.90
29803;DHT22;16702;50.898;4.662;2023-02-24T05:03:10;7.60;99.90
29803;DHT22;16702;50.898;4.662;2023-02-24T05:05:47;7.50;99.90
29803;DHT22;16702;50.898;4.662;2023-02-24T05:08:18;7.50;99.90
29803;DHT22;16702;50.898;4.662;2023-02-24T05:10:49;7.50;99.90
29803;DHT22;16702;50.898;4.662;2023-02-24T05:13:24;7.40;99.90
29803;DHT22;16702;50.898;4.662;2023-02-24T05:15:56;7.50;99.90
29803;DHT22;16702;50.898;4.662;2023-02-24T05:18:26;7.50;99.90
29803;DHT22;16702;50.898;4.662;2023-02-24T05:21:05;7.40;99.90
29803;DHT22;16702;50.898;4.662;2023-02-24T05:23:49;7.30;99.90
29803;DHT22;16702;50.898;4.662;2023-02-24T05:26:21;7.40;99.90
29803;DHT22;16702;50.898;4.662;2023-02-24T05:28:54;7.40;99.90
29803;DHT22;16702;50.898;4.662;2023-02-24T05:31:29;7.40;99.90
29803;DHT22;16702;50.898;4.662;2023-02-24T05:34:01;7.40;99.90
29803;DHT22;16702;50.898;4.662;2023-02-24T05:36:34;7.40;99.90
29803;DHT22;16702;50.898;4.662;2023-02-24T05:39:07;7.50;99.90
29803;DHT22;16702;50.898;4.662;2023-02-24T05:41:40;7.50;99.90
29803;DHT22;16702;50.898;4.662;2023-02-24T05:44:16;7.50;99.90
29803;DHT22;16702;50.898;4.662;2023-02-24T05:46:50;7.50;99.90
29803;DHT22;16702;50.898;4.662;2023-02-24T05:49:28;7.40;99.90
29803;DHT22;16702;50.898;4.662;2023-02-24T05:52:02;7.40;99.90
29803;DHT22;16702;50.898;4.662;2023-02-24T05:54:36;7.40;99.90
29803;DHT22;16702;50.898;4.662;2023-02-24T05:57:09;7.30;99.90
29803;DHT22;16702;50.898;4.662;2023-02-24T05:59:43;7.40;99.90
29803;DHT22;16702;50.898;4.662;2023-02-24T06:02:15;7.40;99.90
29803;DHT22;16702;50.898;4.662;2023-02-24T06:04:54;7.30;99.90
29803;DHT22;16702;50.898;4.662;2023-02-24T06:07:28;7.30;99.90
29803;DHT22;16702;50.898;4.662;2023-02-24T06:10:01;7.30;99.90
29803;DHT22;16702;50.898;4.662;2023-02-24T06:12:36;7.40;99.90
29803;DHT22;16702;50.898;4.662;2023-02-24T06:15:09;7.40;99.90
29803;DHT22;16702;50.898;4.662;2023-02-24T06:17:40;7.40;99.90
29803;DHT22;16702;50.898;4.662;2023-02-24T06:20:11;7.40;99.90
29803;DHT22;16702;50.898;4.662;2023-02-24T06:22:43;7.30;99.90
29803;DHT22;16702;50.898;4.662;2023-02-24T06:25:14;7.30;99.90
29803;DHT22;16702;50.898;4.662;2023-02-24T06:27:48;7.30;99.90
29803;DHT22;16702;50.898;4.662;2023-02-24T06:30:23;7.30;99.90
29803;DHT22;16702;50.898;4.662;2023-02-24T06:32:53;7.30;99.90
29803;DHT22;16702;50.898;4.662;2023-02-24T06:35:24;7.30;99.90
29803;DHT22;16702;50.898;4.662;2023-02-24T06:37:54;7.30;99.90
29803;DHT22;16702;50.898;4.662;2023-02-24T06:40:25;7.20;99.90
29803;DHT22;16702;50.898;4.662;2023-02-24T06:42:57;7.20;99.90
29803;DHT22;16702;50.898;4.662;2023-02-24T06:45:31;7.30;99.90
29803;DHT22;16702;50.898;4.662;2023-02-24T06:48:02;7.20;99.90
29803;DHT22;16702;50.898;4.662;2023-02-24T06:50:34;7.20;99.90
29803;DHT22;16702;50.898;4.662;2023-02-24T06:53:07;7.20;99.90
29803;DHT22;16702;50.898;4.662;2023-02-24T06:55:43;7.20;99.90
29803;DHT22;16702;50.898;4.662;2023-02-24T06:58:16;7.20;99.90
29803;DHT22;16702;50.898;4.662;2023-02-24T07:00:49;7.20;99.90
29803;DHT22;16702;50.898;4.662;2023-02-24T07:03:27;7.20;99.90
29803;DHT22;16702;50.898;4.662;2023-02-24T07:06:07;7.20;99.90
29803;DHT22;16702;50.898;4.662;2023-02-24T07:08:46;7.20;99.90
29803;DHT22;16702;50.898;4.662;2023-02-24T07:11:18;7.20;99.90
29803;DHT22;16702;50.898;4.662;2023-02-24T07:13:49;7.10;99.90
29803;DHT22;16702;50.898;4.662;2023-02-24T07:16:23;7.10;99.90
29803;DHT22;16702;50.898;4.662;2023-02-24T07:18:56;7.10;99.90
29803;DHT22;16702;50.898;4.662;2023-02-24T07:21:30;7.20;99.90
29803;DHT22;16702;50.898;4.662;2023-02-24T07:24:06;7.20;99.90
29803;DHT22;16702;50.898;4.662;2023-02-24T07:26:40;7.10;99.90
29803;DHT22;16702;50.898;4.662;2023-02-24T07:29:17;7.10;99.90
29803;DHT22;16702;50.898;4.662;2023-02-24T07:31:51;7.10;99.90
29803;DHT22;16702;50.898;4.662;2023-02-24T07:34:24;7.10;99.90
29803;DHT22;16702;50.898;4.662;2023-02-24T07:36:55;7.10;99.90
29803;DHT22;16702;50.898;4.662;2023-02-24T07:39:26;7.20;99.90
29803;DHT22;16702;50.898;4.662;2023-02-24T07:41:57;7.10;99.90
29803;DHT22;16702;50.898;4.662;2023-02-24T07:44:28;7.10;99.90
29803;DHT22;16702;50.898;4.662;2023-02-24T07:47:03;7.10;99.90
29803;DHT22;16702;50.898;4.662;2023-02-24T07:49:35;7.10;99.90
29803;DHT22;16702;50.898;4.662;2023-02-24T07:52:06;7.10;99.90
29803;DHT22;16702;50.898;4.662;2023-02-24T07:54:38;7.10;99.90
29803;DHT22;16702;50.898;4.662;2023-02-24T07:57:08;7.10;99.90
29803;DHT22;16702;50.898;4.662;2023-02-24T07:59:41;7.30;99.90
29803;DHT22;16702;50.898;4.662;2023-02-24T08:02:17;7.20;99.90
29803;DHT22;16702;50.898;4.662;2023-02-24T08:04:50;7.20;99.90
29803;DHT22;16702;50.898;4.662;2023-02-24T08:07:21;7.10;99.90
29803;DHT22;16702;50.898;4.662;2023-02-24T08:09:56;7.20;99.90
29803;DHT22;16702;50.898;4.662;2023-02-24T08:12:41;7.10;99.90
29803;DHT22;16702;50.898;4.662;2023-02-24T08:15:12;7.20;99.90
29803;DHT22;16702;50.898;4.662;2023-02-24T08:17:56;7.10;99.90
29803;DHT22;16702;50.898;4.662;2023-02-24T08:20:30;7.10;99.90
29803;DHT22;16702;50.898;4.662;2023-02-24T08:23:02;7.10;99.90
29803;DHT22;16702;50.898;4.662;2023-02-24T08:25:35;7.10;99.90
29803;DHT22;16702;50.898;4.662;2023-02-24T08:28:11;7.20;99.90
29803;DHT22;16702;50.898;4.662;2023-02-24T08:30:42;7.20;99.90
29803;DHT22;16702;50.898;4.662;2023-02-24T08:33:18;7.20;99.90
29803;DHT22;16702;50.898;4.662;2023-02-24T08:35:51;7.20;99.90
29803;DHT22;16702;50.898;4.662;2023-02-24T08:38:30;7.30;99.90
29803;DHT22;16702;50.898;4.662;2023-02-24T08:41:13;7.20;99.90
29803;DHT22;16702;50.898;4.662;2023-02-24T08:43:45;7.30;99.90
29803;DHT22;16702;50.898;4.662;2023-02-24T08:46:18;7.20;99.90
29803;DHT22;16702;50.898;4.662;2023-02-24T08:48:58;7.30;99.90
29803;DHT22;16702;50.898;4.662;2023-02-24T08:51:31;7.30;99.90
29803;DHT22;16702;50.898;4.662;2023-02-24T08:54:04;7.30;99.90
29803;DHT22;16702;50.898;4.662;2023-02-24T08:56:38;7.30;99.90
29803;DHT22;16702;50.898;4.662;2023-02-24T08:59:12;7.30;99.90
29803;DHT22;16702;50.898;4.662;2023-02-24T09:01:56;7.30;99.90
29803;DHT22;16702;50.898;4.662;2023-02-24T09:04:42;7.30;99.90
29803;DHT22;16702;50.898;4.662;2023-02-24T09:07:14;7.20;99.90
29803;DHT22;16702;50.898;4.662;2023-02-24T09:09:45;7.20;99.90
29803;DHT22;16702;50.898;4.662;2023-02-24T09:12:16;7.30;99.90
29803;DHT22;16702;50.898;4.662;2023-02-24T09:14:57;7.30;99.90
29803;DHT22;16702;50.898;4.662;2023-02-24T09:17:31;7.30;99.90
29803;DHT22;16702;50.898;4.662;2023-02-24T09:20:21;7.30;99.90
29803;DHT22;16702;50.898;4.662;2023-02-24T09:23:23;7.30;99.90
29803;DHT22;16702;50.898;4.662;2023-02-24T09:26:12;7.40;99.90
29803;DHT22;16702;50.898;4.662;2023-02-24T09:28:42;7.40;99.90
29803;DHT22;16702;50.898;4.662;2023-02-24T09:31:22;7.40;99.90
29803;DHT22;16702;50.898;4.662;2023-02-24T09:34:07;7.50;99.90
29803;DHT22;16702;50.898;4.662;2023-02-24T09:36:47;7.50;99.90
29803;DHT22;16702;50.898;4.662;2023-02-24T09:39:31;7.50;99.90
29803;DHT22;16702;50.898;4.662;2023-02-24T09:42:25;7.60;99.90
29803;DHT22;16702;50.898;4.662;2023-02-24T09:45:06;7.60;99.90
29803;DHT22;16702;50.898;4.662;2023-02-24T09:47:41;7.70;99.90
29803;DHT22;16702;50.898;4.662;2023-02-24T09:50:27;7.70;99.90
29803;DHT22;16702;50.898;4.662;2023-02-24T09:53:34;7.70;99.90
29803;DHT22;16702;50.898;4.662;2023-02-24T09:56:30;7.70;99.90
29803;DHT22;16702;50.898;4.662;2023-02-24T09:59:09;7.70;99.90
29803;DHT22;16702;50.898;4.662;2023-02-24T10:01:45;7.80;99.90
29803;DHT22;16702;50.898;4.662;2023-02-24T10:04:39;7.70;99.90
29803;DHT22;16702;50.898;4.662;2023-02-24T10:07:26;7.80;99.90
29803;DHT22;16702;50.898;4.662;2023-02-24T10:10:13;7.70;99.90
29803;DHT22;16702;50.898;4.662;2023-02-24T10:13:00;7.80;99.90
29803;DHT22;16702;50.898;4.662;2023-02-24T10:15:41;7.70;99.90
29803;DHT22;16702;50.898;4.662;2023-02-24T10:18:28;7.70;99.90
29803;DHT22;16702;50.898;4.662;2023-02-24T10:21:10;7.70;99.90
29803;DHT22;16702;50.898;4.662;2023-02-24T10:24:03;7.70;99.90
29803;DHT22;16702;50.898;4.662;2023-02-24T10:26:42;7.70;99.90
29803;DHT22;16702;50.898;4.662;2023-02-24T10:29:39;7.70;99.90
29803;DHT22;16702;50.898;4.662;2023-02-24T10:32:19;7.70;99.90
29803;DHT22;16702;50.898;4.662;2023-02-24T10:34:58;7.70;99.90
29803;DHT22;16702;50.898;4.662;2023-02-24T10:37:29;7.70;99.90
29803;DHT22;16702;50.898;4.662;2023-02-24T10:40:03;7.70;99.90
29803;DHT22;16702;50.898;4.662;2023-02-24T10:42:40;7.60;99.90
29803;DHT22;16702;50.898;4.662;2023-02-24T10:45:20;7.50;99.90
29803;DHT22;16702;50.898;4.662;2023-02-24T10:47:53;7.60;99.90
29803;DHT22;16702;50.898;4.662;2023-02-24T10:50:31;7.70;99.90
29803;DHT22;16702;50.898;4.662;2023-02-24T10:53:08;7.60;99.90
29803;DHT22;16702;50.898;4.662;2023-02-24T10:55:54;7.60;99.90
29803;DHT22;16702;50.898;4.662;2023-02-24T10:59:03;7.60;99.90
29803;DHT22;16702;50.898;4.662;2023-02-24T11:01:51;8.00;99.90
29803;DHT22;16702;50.898;4.662;2023-02-24T11:04:35;7.80;99.90
29803;DHT22;16702;50.898;4.662;2023-02-24T11:07:32;7.80;99.90
29803;DHT22;16702;50.898;4.662;2023-02-24T11:10:23;7.80;99.90
29803;DHT22;16702;50.898;4.662;2023-02-24T11:13:15;7.80;99.90
29803;DHT22;16702;50.898;4.662;2023-02-24T11:16:01;7.90;99.90
29803;DHT22;16702;50.898;4.662;2023-02-24T11:18:46;8.10;99.90
29803;DHT22;16702;50.898;4.662;2023-02-24T11:21:21;8.00;99.90
29803;DHT22;16702;50.898;4.662;2023-02-24T11:23:56;8.00;99.90
29803;DHT22;16702;50.898;4.662;2023-02-24T11:26:34;8.00;99.90
29803;DHT22;16702;50.898;4.662;2023-02-24T11:29:30;8.00;99.90
29803;DHT22;16702;50.898;4.662;2023-02-24T11:32:22;8.00;99.90
29803;DHT22;16702;50.898;4.662;2023-02-24T11:35:00;8.20;99.90
29803;DHT22;16702;50.898;4.662;2023-02-24T11:37:36;8.30;99.90
29803;DHT22;16702;50.898;4.662;2023-02-24T11:40:14;8.30;99.90
29803;DHT22;16702;50.898;4.662;2023-02-24T11:42:52;8.30;99.90
29803;DHT22;16702;50.898;4.662;2023-02-24T11:45:29;8.30;99.90
29803;DHT22;16702;50.898;4.662;2023-02-24T11:48:09;8.30;99.90
29803;DHT22;16702;50.898;4.662;2023-02-24T11:50:45;8.30;99.90
29803;DHT22;16702;50.898;4.662;2023-02-24T11:53:25;8.40;99.90
29803;DHT22;16702;50.898;4.662;2023-02-24T11:56:02;8.40;99.90
29803;DHT22;16702;50.898;4.662;2023-02-24T11:58:39;8.30;99.90
29803;DHT22;16702;50.898;4.662;2023-02-24T12:01:18;8.40;99.90
29803;DHT22;16702;50.898;4.662;2023-02-24T12:04:00;8.30;99.90
29803;DHT22;16702;50.898;4.662;2023-02-24T12:06:38;8.40;99.90
29803;DHT22;16702;50.898;4.662;2023-02-24T12:09:13;8.30;99.90
29803;DHT22;16702;50.898;4.662;2023-02-24T12:11:51;8.20;99.90
29803;DHT22;16702;50.898;4.662;2023-02-24T12:14:30;8.30;99.90
29803;DHT22;16702;50.898;4.662;2023-02-24T12:17:12;8.30;99.90
29803;DHT22;16702;50.898;4.662;2023-02-24T12:19:54;8.30;99.90
29803;DHT22;16702;50.898;4.662;2023-02-24T12:22:33;8.30;99.90
29803;DHT22;16702;50.898;4.662;2023-02-24T12:25:25;8.40;99.90
29803;DHT22;16702;50.898;4.662;2023-02-24T12:28:07;8.40;99.90
29803;DHT22;16702;50.898;4.662;2023-02-24T12:31:01;8.50;99.90
29803;DHT22;16702;50.898;4.662;2023-02-24T12:33:45;8.40;99.90
29803;DHT22;16702;50.898;4.662;2023-02-24T12:36:36;8.30;99.90
29803;DHT22;16702;50.898;4.662;2023-02-24T12:39:13;8.50;99.90
29803;DHT22;16702;50.898;4.662;2023-02-24T12:42:00;8.40;99.90
29803;DHT22;16702;50.898;4.662;2023-02-24T12:44:43;8.40;99.90
29803;DHT22;16702;50.898;4.662;2023-02-24T12:47:23;8.40;99.90
29803;DHT22;16702;50.898;4.662;2023-02-24T12:50:16;8.40;99.90
29803;DHT22;16702;50.898;4.662;2023-02-24T12:52:59;8.50;99.90
29803;DHT22;16702;50.898;4.662;2023-02-24T12:55:40;8.50;99.90
29803;DHT22;16702;50.898;4.662;2023-02-24T12:58:18;8.60;99.90
29803;DHT22;16702;50.898;4.662;2023-02-24T13:00:58;8.60;99.90
29803;DHT22;16702;50.898;4.662;2023-02-24T13:03:44;8.70;99.90
29803;DHT22;16702;50.898;4.662;2023-02-24T13:06:26;8.80;99.90
29803;DHT22;16702;50.898;4.662;2023-02-24T13:09:09;8.80;99.90
29803;DHT22;16702;50.898;4.662;2023-02-24T13:11:44;8.80;99.90
29803;DHT22;16702;50.898;4.662;2023-02-24T13:14:23;8.80;99.90
29803;DHT22;16702;50.898;4.662;2023-02-24T13:17:16;8.70;99.90
29803;DHT22;16702;50.898;4.662;2023-02-24T13:19:49;8.70;99.90
29803;DHT22;16702;50.898;4.662;2023-02-24T13:22:27;8.80;99.90
29803;DHT22;16702;50.898;4.662;2023-02-24T13:25:16;8.70;99.90
29803;DHT22;16702;50.898;4.662;2023-02-24T13:27:55;8.60;99.90
29803;DHT22;16702;50.898;4.662;2023-02-24T13:30:37;8.70;99.90
29803;DHT22;16702;50.898;4.662;2023-02-24T13:33:23;8.60;99.90
29803;DHT22;16702;50.898;4.662;2023-02-24T13:36:13;8.60;99.90
29803;DHT22;16702;50.898;4.662;2023-02-24T13:38:49;8.60;99.90
29803;DHT22;16702;50.898;4.662;2023-02-24T13:41:38;8.60;99.90
29803;DHT22;16702;50.898;4.662;2023-02-24T13:44:25;8.60;99.90
29803;DHT22;16702;50.898;4.662;2023-02-24T13:50:01;8.50;99.90
29803;DHT22;16702;50.898;4.662;2023-02-24T13:52:45;8.50;99.90
29803;DHT22;16702;50.898;4.662;2023-02-24T13:55:39;8.40;99.90
29803;DHT22;16702;50.898;4.662;2023-02-24T13:58:40;8.40;99.90
29803;DHT22;16702;50.898;4.662;2023-02-24T14:01:14;8.50;99.90
29803;DHT22;16702;50.898;4.662;2023-02-24T14:04:05;8.30;99.90
29803;DHT22;16702;50.898;4.662;2023-02-24T14:06:45;8.30;99.90
29803;DHT22;16702;50.898;4.662;2023-02-24T14:09:21;8.40;99.90
29803;DHT22;16702;50.898;4.662;2023-02-24T14:11:57;8.50;99.90
29803;DHT22;16702;50.898;4.662;2023-02-24T14:14:32;8.40;99.90
29803;DHT22;16702;50.898;4.662;2023-02-24T14:17:02;8.40;99.90
29803;DHT22;16702;50.898;4.662;2023-02-24T14:19:34;8.40;99.90
29803;DHT22;16702;50.898;4.662;2023-02-24T14:22:04;8.30;99.90
29803;DHT22;16702;50.898;4.662;2023-02-24T14:24:38;8.40;99.90
29803;DHT22;16702;50.898;4.662;2023-02-24T14:27:20;8.20;99.90
29803;DHT22;16702;50.898;4.662;2023-02-24T14:29:54;8.30;99.90
29803;DHT22;16702;50.898;4.662;2023-02-24T14:32:27;8.30;99.90
29803;DHT22;16702;50.898;4.662;2023-02-24T14:34:58;8.30;99.90
29803;DHT22;16702;50.898;4.662;2023-02-24T14:37:30;8.30;99.90
29803;DHT22;16702;50.898;4.662;2023-02-24T14:40:02;8.30;99.90
29803;DHT22;16702;50.898;4.662;2023-02-24T14:42:34;8.20;99.90
29803;DHT22;16702;50.898;4.662;2023-02-24T14:45:20;8.20;99.90
29803;DHT22;16702;50.898;4.662;2023-02-24T14:47:52;8.20;99.90
29803;DHT22;16702;50.898;4.662;2023-02-24T14:50:28;8.30;99.90
29803;DHT22;16702;50.898;4.662;2023-02-24T14:53:03;8.10;99.90
29803;DHT22;16702;50.898;4.662;2023-02-24T14:55:39;8.10;99.90
29803;DHT22;16702;50.898;4.662;2023-02-24T14:58:14;8.20;99.90
29803;DHT22;16702;50.898;4.662;2023-02-24T15:00:52;8.20;99.90
29803;DHT22;16702;50.898;4.662;2023-02-24T15:03:25;8.20;99.90
29803;DHT22;16702;50.898;4.662;2023-02-24T15:06:03;8.10;99.90
29803;DHT22;16702;50.898;4.662;2023-02-24T15:08:39;8.10;99.90
29803;DHT22;16702;50.898;4.662;2023-02-24T15:11:19;8.10;99.90
29803;DHT22;16702;50.898;4.662;2023-02-24T15:13:52;8.10;99.90
29803;DHT22;16702;50.898;4.662;2023-02-24T15:16:31;8.10;99.90
29803;DHT22;16702;50.898;4.662;2023-02-24T15:19:23;8.10;99.90
29803;DHT22;16702;50.898;4.662;2023-02-24T15:21:54;8.00;99.90
29803;DHT22;16702;50.898;4.662;2023-02-24T15:24:28;8.10;99.90
29803;DHT22;16702;50.898;4.662;2023-02-24T15:27:01;8.10;99.90
29803;DHT22;16702;50.898;4.662;2023-02-24T15:29:34;8.10;99.90
29803;DHT22;16702;50.898;4.662;2023-02-24T15:32:14;8.10;99.90
29803;DHT22;16702;50.898;4.662;2023-02-24T15:34:46;8.00;99.90
29803;DHT22;16702;50.898;4.662;2023-02-24T15:37:22;8.10;99.90
29803;DHT22;16702;50.898;4.662;2023-02-24T15:40:02;8.10;99.90
29803;DHT22;16702;50.898;4.662;2023-02-24T15:42:34;8.10;99.90
29803;DHT22;16702;50.898;4.662;2023-02-24T15:45:23;8.30;99.90
29803;DHT22;16702;50.898;4.662;2023-02-24T15:47:58;8.20;99.90
29803;DHT22;16702;50.898;4.662;2023-02-24T15:50:29;8.10;99.90
29803;DHT22;16702;50.898;4.662;2023-02-24T15:53:03;8.10;99.90
29803;DHT22;16702;50.898;4.662;2023-02-24T15:55:40;8.10;99.90
29803;DHT22;16702;50.898;4.662;2023-02-24T15:58:15;8.10;99.90
29803;DHT22;16702;50.898;4.662;2023-02-24T16:00:47;8.10;99.90
29803;DHT22;16702;50.898;4.662;2023-02-24T16:03:21;8.10;99.90
29803;DHT22;16702;50.898;4.662;2023-02-24T16:05:52;8.20;99.90
29803;DHT22;16702;50.898;4.662;2023-02-24T16:08:23;8.20;99.90
29803;DHT22;16702;50.898;4.662;2023-02-24T16:10:53;8.20;99.90
29803;DHT22;16702;50.898;4.662;2023-02-24T16:13:24;8.30;99.90
29803;DHT22;16702;50.898;4.662;2023-02-24T16:15:56;8.10;99.90
29803;DHT22;16702;50.898;4.662;2023-02-24T16:18:29;8.10;99.90
29803;DHT22;16702;50.898;4.662;2023-02-24T16:21:00;8.10;99.90
29803;DHT22;16702;50.898;4.662;2023-02-24T16:23:30;8.10;99.90
29803;DHT22;16702;50.898;4.662;2023-02-24T16:26:12;8.00;99.90
29803;DHT22;16702;50.898;4.662;2023-02-24T16:28:45;8.10;99.90
29803;DHT22;16702;50.898;4.662;2023-02-24T16:31:17;8.20;99.90
29803;DHT22;16702;50.898;4.662;2023-02-24T16:33:50;8.10;99.90
29803;DHT22;16702;50.898;4.662;2023-02-24T16:36:22;8.10;99.90
29803;DHT22;16702;50.898;4.662;2023-02-24T16:38:56;8.10;99.90
29803;DHT22;16702;50.898;4.662;2023-02-24T16:41:29;8.10;99.90
29803;DHT22;16702;50.898;4.662;2023-02-24T16:44:00;8.10;99.90
29803;DHT22;16702;50.898;4.662;2023-02-24T16:46:36;8.10;99.90
29803;DHT22;16702;50.898;4.662;2023-02-24T16:49:12;8.10;99.90
29803;DHT22;16702;50.898;4.662;2023-02-24T16:51:46;8.10;99.90
29803;DHT22;16702;50.898;4.662;2023-02-24T16:54:17;8.00;99.90
29803;DHT22;16702;50.898;4.662;2023-02-24T16:56:48;8.10;99.90
29803;DHT22;16702;50.898;4.662;2023-02-24T16:59:19;8.00;99.90
29803;DHT22;16702;50.898;4.662;2023-02-24T17:01:49;8.00;99.90
29803;DHT22;16702;50.898;4.662;2023-02-24T17:04:22;8.00;99.90